KENW/ENW METAR and TAF weather

Enter ICAO airport designator
Station Type Date Time Source
KENW METAR 2022/06/29 00:53 UTC NOAA

KENW 290053Z 24008KT 10SM CLR 27/11 A3008 RMK AO2 SLP181 T02670106


Station Type Date Time Source
KENW Decoded METAR 2022/06/29 00:53 UTC NOAA

KENOSHA REGIONAL AIRPORT, WI, United States (KENW) 42-36N 087-56W 219M
Jun 28, 2022 - 08:53 PM EDT / 2022.06.29 0053 UTC
Wind: from the WSW (240 degrees) at 9 MPH (8 KT):0
Visibility: 10 mile(s):0
Sky conditions: clear
Temperature: 80.1 F (26.7 C)
Dew Point: 51.1 F (10.6 C)
Relative Humidity: 36%
Pressure (altimeter): 30.08 in. Hg (1018 hPa)
ob: KENW 290053Z 24008KT 10SM CLR 27/11 A3008 RMK AO2 SLP181 T02670106
cycle: 1

Station Type Date Time Source
KENW TAF 2022/06/28 22:33 UTC NOAA

TAF
AMD KENW 282130Z 2822/2918 24010G18KT P6SM SCT100
FM290000 22009KT P6SM SCT250
FM290300 22006KT P6SM VCTS BKN080CB
FM290700 32005KT P6SM BKN090
FM291600 05006KT P6SM FEW120

Example: see airport list